Search for airport 
image banner adimage banner adimage banner ad
image banner ad

PN55 - Skala

Located in Mc Clellandtown, United States

ICAO - PN55, IATA -

Data provided by Airmate  

General information

Coordinates: N39°51'30" W79°49'24"
Elevation is 1270 feet MSL.
Magnetic variation is -07° East
View others Airports in Pennsylvania

Operational data

Special qualification required
Current time UTC:
Current local time:
METAR: KMGW 071153Z 00000KT 10SM OVC050 07/05 A2988 RMK AO2 SLP121 T00720050 10078 20056 55002
TAF: KMGW 071133Z 0712/0812 00000KT P6SM BKN060 FM071300 26004KT 6SM -SHRA OVC025 FM071500 28005KT 3SM -SHRA OVC015 FM071900 30006KT 6SM -SHRA BKN020 FM072100 30008KT P6SM BKN045 FM080600 24004KT P6SM VCSH BKN020
View NOTAMs / SUP AIP / TFR affecting this airport [VIEW]
Communications frequencies: [VIEW]

Runways:

RWY identifierQFULength (ft)Width (ft)SurfaceLDA (ft)
101400100GRASS
281400100GRASS

Airport contact information

Address: Mc Clellandtown United States

Satellite view of PN55